Time;durP1;ratioP1;P1;durP2;ratioP2;P2;SDS_P1;SDS_P2;PMS_P1;PMS_P2;Temp;Humidity;BMP_temperature;BMP_pressure;BME280_temperature;BME280_humidity;BME280_pressure;Samples;Min_cycle;Max_cycle;Signal;HPM_P1;HPM_P2
2023/05/15 00:01:28;;;;;;;1999.90;999.90;;;;;;;9.60;100.00;100860.66;5024785;28;20516;-83
2023/05/15 00:03:53;;;;;;;1999.90;999.90;;;;;;;9.52;100.00;100860.56;5028018;28;20025;-83
2023/05/15 00:06:19;;;;;;;1999.90;999.90;;;;;;;9.48;100.00;100860.06;5010125;28;20859;-84
2023/05/15 00:08:45;;;;;;;1999.90;999.90;;;;;;;9.38;100.00;100842.44;5009973;28;20517;-83
2023/05/15 00:11:10;;;;;;;1999.90;999.90;;;;;;;9.45;100.00;100852.34;5010652;28;20390;-85
2023/05/15 00:13:37;;;;;;;1999.90;999.90;;;;;;;9.42;100.00;100868.66;5009007;28;20029;-84
2023/05/15 00:16:04;;;;;;;1999.90;999.90;;;;;;;9.43;100.00;100885.47;5027193;28;21537;-83
2023/05/15 00:18:30;;;;;;;1999.90;999.90;;;;;;;9.43;100.00;100882.81;4993515;28;20032;-84
2023/05/15 00:20:55;;;;;;;1999.90;999.90;;;;;;;9.36;100.00;100865.75;5010776;28;20502;-83
2023/05/15 00:23:21;;;;;;;1999.90;494.57;;;;;;;9.29;100.00;100849.53;5012927;28;20503;-84
2023/05/15 00:25:46;;;;;;;1999.90;999.90;;;;;;;9.25;100.00;100856.16;5029904;28;20045;-83
2023/05/15 00:28:11;;;;;;;1999.90;999.90;;;;;;;9.19;100.00;100854.09;5005595;28;20033;-82
2023/05/15 00:30:37;;;;;;;1999.90;999.90;;;;;;;9.17;100.00;100856.91;5022475;28;20045;-84
2023/05/15 00:33:02;;;;;;;1999.90;999.90;;;;;;;9.19;100.00;100844.28;5001669;28;20037;-83
2023/05/15 00:35:28;;;;;;;1999.90;999.90;;;;;;;9.26;100.00;100848.00;5018794;28;20040;-83
2023/05/15 00:37:53;;;;;;;1999.90;999.90;;;;;;;9.21;100.00;100850.28;5003605;28;20060;-83
2023/05/15 00:40:22;;;;;;;1999.90;999.90;;;;;;;9.21;100.00;100852.94;5014958;28;20091;-83
2023/05/15 00:42:49;;;;;;;1999.90;999.90;;;;;;;9.27;100.00;100856.81;5026423;28;20038;-84
2023/05/15 00:45:15;;;;;;;1999.90;999.90;;;;;;;9.25;100.00;100856.16;5024990;28;20069;-83
2023/05/15 00:47:42;;;;;;;1999.90;999.90;;;;;;;9.25;100.00;100846.34;5009587;28;20526;-83
2023/05/15 00:50:08;;;;;;;1999.90;999.90;;;;;;;9.24;100.00;100847.31;5012881;28;20033;-83
2023/05/15 00:52:34;;;;;;;;;;;;;;;9.23;100.00;100836.84;5030061;28;20113;-83
2023/05/15 00:55:00;;;;;;;1999.90;999.90;;;;;;;9.12;100.00;100821.06;5019041;28;20008;-84
2023/05/15 00:57:26;;;;;;;1999.90;999.90;;;;;;;9.13;100.00;100828.06;5015451;28;20064;-85
2023/05/15 00:59:53;;;;;;;1999.90;999.90;;;;;;;9.06;100.00;100823.34;5011764;28;20032;-84
2023/05/15 01:02:18;;;;;;;1999.90;999.90;;;;;;;9.08;100.00;100820.50;5009545;28;20041;-84
2023/05/15 01:04:44;;;;;;;1999.90;999.90;;;;;;;9.12;100.00;100837.88;5024377;28;20028;-84
2023/05/15 01:07:10;;;;;;;1999.90;999.90;;;;;;;9.11;100.00;100825.56;5030398;28;20116;-84
2023/05/15 01:09:37;;;;;;;1457.13;566.13;;;;;;;9.00;100.00;100801.81;5014128;28;20029;-84
2023/05/15 01:12:06;;;;;;;1999.90;999.90;;;;;;;9.20;100.00;100832.66;5026487;28;20563;-86
2023/05/15 01:14:32;;;;;;;1999.90;999.90;;;;;;;9.26;100.00;100840.00;5014508;28;20021;-83
2023/05/15 01:16:57;;;;;;;1999.90;999.90;;;;;;;9.33;100.00;100848.25;5020274;28;20052;-84
2023/05/15 01:19:24;;;;;;;1999.90;999.90;;;;;;;9.34;100.00;100838.41;5004207;28;20275;-84
2023/05/15 01:21:56;;;;;;;1999.90;999.90;;;;;;;9.37;100.00;100844.28;5001368;28;20568;-84
2023/05/15 01:24:34;;;;;;;1999.90;999.90;;;;;;;9.43;100.00;100845.50;5015241;28;20045;-84
2023/05/15 01:27:42;;;;;;;1999.90;999.90;;;;;;;9.48;100.00;100854.72;5029921;28;20033;-84
2023/05/15 01:30:22;;;;;;;1999.90;999.90;;;;;;;9.46;100.00;100838.03;5006086;28;20036;-84
2023/05/15 01:33:36;;;;;;;1479.55;550.17;;;;;;;9.48;100.00;100837.88;5019791;28;20030;-82
2023/05/15 01:36:20;;;;;;;1999.90;999.90;;;;;;;9.43;100.00;100825.00;4990654;28;20501;-83
2023/05/15 01:38:55;;;;;;;1999.90;999.90;;;;;;;9.41;100.00;100821.69;5009888;28;20037;-84
2023/05/15 01:41:32;;;;;;;1999.90;999.90;;;;;;;9.44;100.00;100825.88;5011987;28;20040;-84
2023/05/15 01:44:04;;;;;;;1999.90;999.90;;;;;;;9.41;100.00;100824.34;5021741;28;20676;-84
2023/05/15 01:46:30;;;;;;;1999.90;999.90;;;;;;;9.43;100.00;100829.50;5007821;28;20034;-86
2023/05/15 01:48:57;;;;;;;;;;;;;;;9.47;100.00;100836.22;5028708;28;20026;-85
2023/05/15 01:51:24;;;;;;;1999.90;999.90;;;;;;;9.44;100.00;100825.88;5033870;28;19956;-83
2023/05/15 01:53:52;;;;;;;1994.38;812.78;;;;;;;9.42;100.00;100827.84;5024007;28;20032;-85
2023/05/15 01:56:20;;;;;;;1999.90;999.90;;;;;;;9.43;100.00;100822.34;5029381;28;20121;-83
2023/05/15 01:58:47;;;;;;;1999.90;999.90;;;;;;;9.40;100.00;100822.66;5012979;28;20029;-84
2023/05/15 02:01:13;;;;;;;1999.90;999.90;;;;;;;9.37;100.00;100822.16;5029450;28;20038;-84
2023/05/15 02:03:40;;;;;;;1999.90;999.90;;;;;;;9.34;100.00;100820.63;5004251;28;20033;-85
2023/05/15 02:06:06;;;;;;;1804.85;775.45;;;;;;;9.32;100.00;100814.59;5027899;28;20041;-84
2023/05/15 02:08:33;;;;;;;1999.90;999.90;;;;;;;9.21;100.00;100798.84;5006800;28;20025;-84
2023/05/15 02:11:01;;;;;;;1940.82;786.97;;;;;;;9.23;100.00;100803.03;5027928;28;20120;-84
2023/05/15 02:13:27;;;;;;;1999.90;668.83;;;;;;;9.26;100.00;100802.72;5011140;28;20026;-83
2023/05/15 02:15:53;;;;;;;1999.90;999.90;;;;;;;9.25;100.00;100817.03;5027819;28;20121;-83
2023/05/15 02:18:18;;;;;;;1999.90;999.90;;;;;;;9.21;100.00;100802.34;5003262;28;20116;-84
2023/05/15 02:20:44;;;;;;;1999.90;999.90;;;;;;;9.26;100.00;100801.88;5028567;28;20068;-84
2023/05/15 02:23:10;;;;;;;1747.03;437.83;;;;;;;9.30;100.00;100812.09;5020288;28;20021;-84
2023/05/15 02:26:07;;;;;;;1999.90;999.90;;;;;;;9.37;100.00;100814.16;5015504;28;20121;-83
2023/05/15 02:28:41;;;;;;;1999.90;999.90;;;;;;;9.43;100.00;100814.34;4986049;28;20042;-84
2023/05/15 02:31:16;;;;;;;1999.90;999.90;;;;;;;9.48;100.00;100817.41;5012377;28;20057;-85
2023/05/15 02:33:54;;;;;;;1907.32;785.85;;;;;;;9.50;100.00;100811.91;5020254;28;20521;-83
2023/05/15 02:36:27;;;;;;;1999.90;999.90;;;;;;;9.51;100.00;100809.09;5015808;28;20048;-84
2023/05/15 02:38:54;;;;;;;1999.90;584.30;;;;;;;9.51;100.00;100802.94;5023502;28;20432;-82
2023/05/15 02:41:21;;;;;;;1484.80;105.38;;;;;;;9.52;100.00;100802.75;5016149;28;20120;-85
2023/05/15 02:43:49;;;;;;;1984.07;804.30;;;;;;;9.49;100.00;100804.91;5028423;28;20095;-86
2023/05/15 02:46:15;;;;;;;1855.57;182.75;;;;;;;9.42;100.00;100793.19;4998072;28;20486;-84
2023/05/15 02:48:42;;;;;;;1511.38;340.73;;;;;;;9.29;100.00;100785.59;5007958;28;20041;-84
2023/05/15 02:51:07;;;;;;;1999.90;797.80;;;;;;;9.24;100.00;100788.69;5008120;28;20029;-84
2023/05/15 02:53:38;;;;;;;1968.97;494.95;;;;;;;9.21;100.00;100786.34;5033602;28;20567;-85
2023/05/15 02:56:05;;;;;;;1999.90;999.90;;;;;;;9.18;100.00;100783.19;5032939;28;20083;-84
2023/05/15 02:58:30;;;;;;;1955.97;202.02;;;;;;;9.10;100.00;100775.91;5008497;28;20071;-83
2023/05/15 03:00:56;;;;;;;1999.90;999.90;;;;;;;9.04;100.00;100761.41;5028452;28;20037;-82
2023/05/15 03:03:21;;;;;;;1999.90;999.90;;;;;;;8.94;100.00;100749.13;5011253;28;20485;-84
2023/05/15 03:05:47;;;;;;;1795.83;438.43;;;;;;;9.00;100.00;100754.69;5024621;28;20605;-82
2023/05/15 03:08:13;;;;;;;1999.90;999.90;;;;;;;9.02;100.00;100762.53;5021831;28;20030;-82
2023/05/15 03:10:39;;;;;;;1999.90;999.90;;;;;;;9.04;100.00;100756.06;5010507;28;20032;-83
2023/05/15 03:13:04;;;;;;;1999.90;999.90;;;;;;;9.06;100.00;100756.75;5005479;28;20537;-86
2023/05/15 03:15:29;;;;;;;1999.90;999.90;;;;;;;9.04;100.00;100756.06;5017278;28;20033;-83
2023/05/15 03:17:55;;;;;;;1999.90;999.90;;;;;;;9.01;100.00;100750.19;5012423;28;20034;-84
2023/05/15 03:20:20;;;;;;;1999.90;999.90;;;;;;;8.96;100.00;100747.16;5029056;28;20083;-84
2023/05/15 03:22:46;;;;;;;1999.90;999.90;;;;;;;8.95;100.00;100741.00;5013404;28;20032;-82
2023/05/15 03:25:11;;;;;;;1999.90;999.90;;;;;;;8.92;100.00;100740.47;5027653;28;20034;-83
2023/05/15 03:27:37;;;;;;;1999.90;999.90;;;;;;;8.88;100.00;100734.63;5024994;28;20065;-83
2023/05/15 03:30:03;;;;;;;1999.90;999.90;;;;;;;8.80;100.00;100727.41;5014210;28;20045;-84
2023/05/15 03:32:29;;;;;;;1999.90;999.90;;;;;;;8.78;100.00;100718.72;5016728;28;20021;-84
2023/05/15 03:34:54;;;;;;;1999.90;999.90;;;;;;;8.79;100.00;100723.03;5011050;28;20120;-85
2023/05/15 03:37:19;;;;;;;1999.90;999.90;;;;;;;8.72;100.00;100714.00;5013179;28;20044;-85
2023/05/15 03:39:45;;;;;;;1999.90;999.90;;;;;;;8.72;100.00;100707.84;5031691;28;20030;-84
2023/05/15 03:42:11;;;;;;;1999.90;999.90;;;;;;;8.79;100.00;100714.22;5027406;28;20025;-84
2023/05/15 03:44:36;;;;;;;1999.90;999.90;;;;;;;8.79;100.00;100704.41;5010515;28;20040;-84
2023/05/15 03:47:02;;;;;;;1999.90;999.90;;;;;;;8.80;100.00;100707.91;5024552;28;20751;-84
2023/05/15 03:49:27;;;;;;;1999.90;999.90;;;;;;;8.86;100.00;100708.13;5014807;28;20036;-84
2023/05/15 03:51:52;;;;;;;1999.90;999.90;;;;;;;8.93;100.00;100712.88;5009679;28;20393;-84
2023/05/15 03:54:18;;;;;;;1999.90;999.90;;;;;;;8.86;100.00;100697.47;5031485;28;20068;-85
2023/05/15 03:56:43;;;;;;;1717.57;704.30;;;;;;;8.92;100.00;100704.03;5028650;28;20824;-85
2023/05/15 03:59:09;;;;;;;1999.90;999.90;;;;;;;8.92;100.00;100705.84;5028702;28;20033;-84
2023/05/15 04:01:34;;;;;;;1999.90;999.90;;;;;;;9.00;100.00;100706.75;5027658;28;20099;-86
2023/05/15 04:03:59;;;;;;;1999.90;999.90;;;;;;;9.04;100.00;100713.47;5012764;28;20041;-86
2023/05/15 04:06:25;;;;;;;1999.90;999.90;;;;;;;9.07;100.00;100707.00;5016677;28;20056;-84
2023/05/15 04:08:50;;;;;;;1999.90;999.90;;;;;;;9.07;100.00;100704.31;5028571;28;20041;-85
2023/05/15 04:11:15;;;;;;;1999.90;999.90;;;;;;;9.11;100.00;100700.38;5033150;28;20049;-85
2023/05/15 04:13:41;;;;;;;1999.90;999.90;;;;;;;9.10;100.00;100688.03;5031470;28;20040;-84
2023/05/15 04:16:07;;;;;;;1999.90;999.90;;;;;;;9.15;100.00;100696.38;5027476;28;20510;-84
2023/05/15 04:18:32;;;;;;;;;;;;;;;9.18;100.00;100687.28;4995612;28;20037;-84
2023/05/15 04:20:57;;;;;;;;;;;;;;;9.17;100.00;100677.59;5024147;28;19909;-85
2023/05/15 04:23:23;;;;;;;1999.90;999.90;;;;;;;9.22;100.00;100673.47;5026534;28;19942;-84
2023/05/15 04:25:48;;;;;;;1999.90;999.90;;;;;;;9.28;100.00;100699.50;5032745;28;20109;-85
2023/05/15 04:28:14;;;;;;;1999.90;999.90;;;;;;;9.32;100.00;100700.03;5031676;28;20034;-85
2023/05/15 04:30:40;;;;;;;1999.90;999.90;;;;;;;9.51;100.00;100709.66;5040036;28;20224;-83
2023/05/15 04:33:06;;;;;;;1999.90;999.90;;;;;;;9.68;100.00;100718.59;5025982;28;20520;-83
2023/05/15 04:35:31;;;;;;;1999.90;999.90;;;;;;;9.77;100.00;100714.16;5007961;28;20023;-83
2023/05/15 04:37:57;;;;;;;1999.90;518.85;;;;;;;9.95;100.00;100722.91;5002527;28;20096;-83
2023/05/15 04:40:22;;;;;;;1999.90;999.90;;;;;;;10.02;100.00;100712.44;5013312;28;20051;-83
2023/05/15 04:42:48;;;;;;;1999.90;999.90;;;;;;;10.07;100.00;100708.31;5026553;28;20033;-84
2023/05/15 04:45:13;;;;;;;1999.90;999.90;;;;;;;10.24;100.00;100719.03;4995629;28;20029;-83
2023/05/15 04:47:39;;;;;;;1999.90;999.90;;;;;;;10.38;100.00;100722.97;5016578;28;20067;-84
2023/05/15 04:50:05;;;;;;;1999.90;999.90;;;;;;;10.57;100.00;100728.00;5019801;28;20075;-84
2023/05/15 04:52:31;;;;;;;1999.90;999.90;;;;;;;10.72;100.00;100722.88;5003493;28;20125;-85
2023/05/15 04:54:56;;;;;;;1463.30;340.33;;;;;;;10.89;100.00;100716.56;5025987;28;20309;-82
2023/05/15 04:57:22;;;;;;;1795.80;384.10;;;;;;;11.07;100.00;100715.56;5014979;28;20033;-82
2023/05/15 04:59:48;;;;;;;1999.90;999.90;;;;;;;11.19;100.00;100700.88;5011018;28;20063;-82
2023/05/15 05:02:13;;;;;;;1999.90;999.90;;;;;;;11.45;100.00;100702.50;5001341;28;20356;-82
2023/05/15 05:04:41;;;;;;;1999.90;999.90;;;;;;;11.72;100.00;100710.16;5021196;28;20314;-82
2023/05/15 05:07:07;;;;;;;1999.90;999.90;;;;;;;11.89;100.00;100702.94;4996314;28;20025;-83
2023/05/15 05:09:33;;;;;;;1999.90;999.90;;;;;;;12.13;100.00;100704.72;5028853;28;20033;-82
2023/05/15 05:11:59;;;;;;;1999.90;999.90;;;;;;;12.24;100.00;100669.53;5010043;28;20272;-82
2023/05/15 05:14:25;;;;;;;;;;;;;;;12.58;100.00;100654.94;5024866;28;20045;-83
2023/05/15 05:16:50;;;;;;;;;;;;;;;12.89;100.00;100624.56;5029118;28;19909;-82
2023/05/15 05:19:15;;;;;;;;;;;;;;;13.58;100.00;100591.38;5023908;28;20032;-84
2023/05/15 05:21:41;;;;;;;1999.90;966.30;;;;;;;14.54;100.00;100533.03;5012176;28;19909;-83
2023/05/15 05:24:06;;;;;;;1999.90;775.60;;;;;;;15.36;100.00;100402.41;5028161;28;20044;-84
2023/05/15 05:26:31;;;;;;;1999.90;735.67;;;;;;;15.70;100.00;100221.16;5022198;28;20064;-84
2023/05/15 05:28:57;;;;;;;1999.90;923.93;;;;;;;16.69;100.00;100073.66;5025754;28;20237;-83
2023/05/15 05:31:22;;;;;;;829.27;299.37;;;;;;;17.48;100.00;99904.00;5009375;28;20121;-84
2023/05/15 05:33:48;;;;;;;1939.37;785.73;;;;;;;17.73;100.00;99625.84;5017670;28;20057;-83
2023/05/15 05:36:14;;;;;;;44.58;40.50;;;;;;;18.23;100.00;99546.13;5024365;28;20073;-84
2023/05/15 05:38:41;;;;;;;1518.40;546.55;;;;;;;18.39;100.00;99361.59;5013790;28;20577;-86
2023/05/15 05:41:06;;;;;;;185.60;93.20;;;;;;;18.56;100.00;99305.63;5010663;28;20017;-86
2023/05/15 05:43:31;;;;;;;48.23;39.17;;;;;;;18.93;100.00;99223.91;5002213;28;20088;-87
2023/05/15 05:45:57;;;;;;;30.87;19.40;;;;;;;19.13;100.00;99203.56;5002466;28;20057;-85
2023/05/15 05:48:22;;;;;;;20.45;15.50;;;;;;;19.12;100.00;99166.75;5025457;28;20061;-86
2023/05/15 05:50:48;;;;;;;17.87;14.63;;;;;;;19.67;98.62;99183.72;5029862;28;20040;-87
2023/05/15 05:53:13;;;;;;;24.93;17.47;;;;;;;19.66;94.95;99071.88;5019885;28;20460;-86
2023/05/15 05:55:39;;;;;;;23.58;19.15;;;;;;;19.58;91.06;98904.59;4992696;28;20092;-86
2023/05/15 06:00:35;;;;;;;17.80;13.38;;;;;;;20.09;87.77;98991.41;5062005;28;20056;-74
2023/05/15 06:03:01;;;;;;;19.52;14.85;;;;;;;19.96;87.06;99046.06;5065615;28;20048;-75
2023/05/15 06:05:27;;;;;;;16.90;13.27;;;;;;;20.47;84.87;99048.09;5044418;28;20170;-75
2023/05/15 06:07:54;;;;;;;17.23;13.57;;;;;;;20.45;83.21;98999.56;5065361;28;20036;-73
2023/05/15 06:10:20;;;;;;;19.23;14.55;;;;;;;20.72;80.91;98930.72;5044310;28;20033;-70
2023/05/15 06:12:46;;;;;;;;;;;;;;;20.55;78.70;98768.34;5050259;28;20036;-73
2023/05/15 06:15:12;;;;;;;19.20;14.43;;;;;;;20.91;76.79;98758.19;5093100;22;19992;-70
2023/05/15 06:17:37;;;;;;;15.98;13.73;;;;;;;20.21;76.89;98737.28;5069817;28;20036;-69
2023/05/15 06:20:07;;;;;;;17.50;13.82;;;;;;;20.44;77.65;98966.22;5088144;28;20028;-69
2023/05/15 06:22:33;;;;;;;20.27;14.13;;;;;;;20.99;74.14;98779.31;5067521;28;20036;-72
2023/05/15 06:24:58;;;;;;;18.25;14.13;;;;;;;19.75;74.70;98685.88;5087112;28;20031;-69
2023/05/15 06:27:25;;;;;;;14.17;12.67;;;;;;;18.84;77.27;98833.41;5093776;28;20035;-69
2023/05/15 06:29:51;;;;;;;18.60;13.30;;;;;;;18.32;79.01;98983.53;5092093;28;20270;-69
2023/05/15 06:32:16;;;;;;;20.48;17.08;;;;;;;18.14;79.94;99108.97;5092275;28;20042;-70
2023/05/15 06:34:41;;;;;;;19.63;14.50;;;;;;;17.86;81.77;99230.63;5093671;28;20115;-69
2023/05/15 06:37:07;;;;;;;21.83;19.00;;;;;;;17.46;83.00;99266.66;5093424;28;20064;-69
2023/05/15 06:39:32;;;;;;;21.60;19.03;;;;;;;17.06;86.69;99502.13;5093934;28;20024;-69
2023/05/15 06:42:00;;;;;;;17.10;13.83;;;;;;;17.09;88.43;99626.53;5095385;28;20031;-69
2023/05/15 06:44:29;;;;;;;41.47;37.25;;;;;;;16.66;90.68;99686.03;5093695;28;20028;-72
2023/05/15 06:46:55;;;;;;;67.43;61.78;;;;;;;16.21;93.00;99765.31;5095154;28;20501;-72
2023/05/15 06:49:20;;;;;;;175.93;132.43;;;;;;;15.86;96.84;99907.69;5094850;28;20023;-71
2023/05/15 06:51:45;;;;;;;255.43;161.87;;;;;;;15.55;100.00;100018.78;5094130;28;20036;-71
2023/05/15 06:54:11;;;;;;;407.93;213.93;;;;;;;15.46;100.00;100157.22;5089628;28;20026;-71
2023/05/15 06:56:36;;;;;;;61.90;53.60;;;;;;;15.66;100.00;100273.72;5087406;28;20054;-71
2023/05/15 06:59:01;;;;;;;271.20;169.60;;;;;;;15.80;100.00;100259.28;5093561;28;20774;-71
2023/05/15 07:01:27;;;;;;;56.87;45.37;;;;;;;16.92;100.00;100299.56;5090589;28;20436;-72
2023/05/15 07:03:52;;;;;;;49.00;30.20;;;;;;;18.06;98.06;100078.94;5091431;28;20073;-72
2023/05/15 07:06:17;;;;;;;15.13;11.43;;;;;;;18.29;96.11;99985.53;5089077;28;20044;-72
2023/05/15 07:08:43;;;;;;;15.43;11.13;;;;;;;19.06;92.23;99920.56;5090233;28;20088;-72
2023/05/15 07:11:08;;;;;;;14.33;9.07;;;;;;;18.94;87.00;99570.88;5093799;28;20031;-72
2023/05/15 07:13:33;;;;;;;11.93;8.90;;;;;;;19.66;85.45;99626.06;5089976;28;20489;-73
2023/05/15 07:15:59;;;;;;;15.30;10.10;;;;;;;19.88;81.97;99390.50;5092187;28;20032;-73
2023/05/15 07:18:24;;;;;;;12.63;8.83;;;;;;;20.16;79.96;99337.94;5092428;28;20040;-72
2023/05/15 07:20:50;;;;;;;16.83;7.47;;;;;;;20.26;78.08;99277.56;5093824;28;20051;-73
2023/05/15 07:23:15;;;;;;;11.23;7.60;;;;;;;20.93;75.78;99260.56;5088372;28;20028;-73
2023/05/15 07:25:40;;;;;;;14.40;8.20;;;;;;;20.34;74.28;99057.53;5065499;28;20478;-72
2023/05/15 07:28:06;;;;;;;10.40;7.07;;;;;;;20.35;73.65;99008.50;5089521;28;20031;-72
2023/05/15 07:30:31;;;;;;;12.27;7.90;;;;;;;20.26;75.64;99226.09;5092823;28;20028;-72
2023/05/15 07:32:56;;;;;;;9.43;7.17;;;;;;;20.58;75.14;99299.16;5094131;28;20023;-72
2023/05/15 07:35:22;;;;;;;12.37;10.87;;;;;;;20.57;71.77;99013.69;5092946;28;20088;-72
2023/05/15 07:37:47;;;;;;;14.63;7.35;;;;;;;20.35;72.94;99135.06;5087498;28;20096;-70
2023/05/15 07:40:14;;;;;;;10.00;7.10;;;;;;;19.95;73.70;99128.41;5086656;28;20088;-70
2023/05/15 07:42:39;;;;;;;9.68;6.80;;;;;;;20.78;74.22;99382.53;5092148;28;20119;-71
2023/05/15 07:45:06;;;;;;;7.57;6.20;;;;;;;21.40;72.52;99367.34;5094642;28;20035;-70
2023/05/15 07:47:31;;;;;;;10.98;6.43;;;;;;;21.77;70.87;99234.03;5062468;28;20111;-70
2023/05/15 07:49:56;;;;;;;10.03;7.20;;;;;;;21.54;70.22;99137.69;5074122;28;20604;-70
2023/05/15 07:52:21;;;;;;;12.30;7.30;;;;;;;20.95;67.43;98666.22;5088841;28;20622;-70
2023/05/15 07:54:47;;;;;;;6.27;5.57;;;;;;;21.31;68.43;98987.03;5063912;28;20431;-72
2023/05/15 07:57:13;;;;;;;7.23;5.93;;;;;;;21.39;66.95;98901.50;5094564;28;20030;-72
2023/05/15 07:59:38;;;;;;;10.70;6.07;;;;;;;21.49;66.47;98882.47;5092243;28;20036;-72
2023/05/15 08:02:03;;;;;;;13.27;6.10;;;;;;;21.65;66.90;99014.34;5095114;28;20072;-70
2023/05/15 08:04:29;;;;;;;7.72;5.90;;;;;;;21.25;65.48;98712.13;5088835;28;20706;-70
2023/05/15 08:06:54;;;;;;;7.53;6.60;;;;;;;20.98;66.33;98834.66;5090459;28;20402;-70
2023/05/15 08:09:20;;;;;;;7.43;5.60;;;;;;;21.29;66.71;98981.88;5093331;28;20517;-70
2023/05/15 08:11:45;;;;;;;11.23;6.60;;;;;;;21.54;67.11;99079.84;5092145;28;20035;-70
2023/05/15 08:14:10;;;;;;;9.90;5.50;;;;;;;21.82;66.31;99095.53;5090785;28;20031;-70
2023/05/15 08:16:36;;;;;;;10.60;6.53;;;;;;;21.95;67.61;99294.34;5088700;28;20110;-70
2023/05/15 08:19:03;;;;;;;7.47;5.55;;;;;;;22.00;66.51;99169.34;5073874;28;20103;-70
2023/05/15 08:21:30;;;;;;;9.70;5.97;;;;;;;21.92;66.03;99094.69;5073575;28;20051;-70
2023/05/15 08:23:56;;;;;;;5.85;5.05;;;;;;;22.10;64.94;99055.19;5088177;28;20024;-70
2023/05/15 08:26:21;;;;;;;7.95;4.80;;;;;;;22.71;64.46;99130.16;5088240;28;20039;-70
2023/05/15 08:28:47;;;;;;;9.15;4.97;;;;;;;22.99;61.11;98823.06;5085518;28;20062;-69
2023/05/15 08:31:12;;;;;;;6.27;4.07;;;;;;;22.30;59.84;98470.69;5091392;28;20469;-72
2023/05/15 08:33:37;;;;;;;8.77;6.00;;;;;;;22.30;61.17;98706.38;5067154;28;20457;-71
2023/05/15 08:36:03;;;;;;;5.87;4.13;;;;;;;23.32;58.23;98630.69;5069889;28;20087;-70
2023/05/15 08:38:28;;;;;;;11.30;4.70;;;;;;;23.63;57.23;98595.56;5070362;28;20131;-71
2023/05/15 08:40:57;;;;;;;13.57;4.50;;;;;;;24.01;58.07;98819.72;5074636;28;20044;-71
2023/05/15 08:43:25;;;;;;;6.88;4.38;;;;;;;24.21;56.23;98651.47;5091983;28;20397;-70
2023/05/15 08:45:52;;;;;;;7.45;4.30;;;;;;;23.67;56.11;98468.59;5089176;28;20031;-70
2023/05/15 08:48:21;;;;;;;5.80;4.10;;;;;;;23.99;56.33;98663.84;5092895;28;20036;-70
2023/05/15 08:50:47;;;;;;;8.38;4.43;;;;;;;24.41;55.26;98648.28;5088431;28;20020;-71
2023/05/15 08:53:12;;;;;;;;;;;;;;;24.42;55.45;98636.28;5070233;28;20407;-71
2023/05/15 08:55:39;;;;;;;12.48;3.42;;;;;;;24.02;54.27;98401.63;5044968;28;19912;-71
2023/05/15 08:58:05;;;;;;;10.35;4.07;;;;;;;23.57;53.25;98107.38;5077471;28;20445;-71
2023/05/15 09:00:31;;;;;;;;;;;;;;;23.86;54.71;98473.09;5062101;28;20056;-71
2023/05/15 09:03:00;;;;;;;6.20;3.30;;;;;;;23.75;53.58;98295.47;5059947;28;19912;-71
2023/05/15 09:05:27;;;;;;;8.57;3.50;;;;;;;23.56;53.38;98225.59;5077224;28;20028;-70
2023/05/15 09:07:53;;;;;;;10.98;3.40;;;;;;;23.07;53.51;98074.09;5063808;28;20028;-70
2023/05/15 09:10:19;;;;;;;5.07;3.90;;;;;;;22.92;54.44;98254.78;5078060;28;20032;-70
2023/05/15 09:12:45;;;;;;;7.75;3.70;;;;;;;22.52;54.50;98135.69;5076638;28;20078;-70
2023/05/15 09:15:16;;;;;;;19.90;4.35;;;;;;;22.76;54.32;98206.16;5077913;28;20294;-69
2023/05/15 09:17:43;;;;;;;5.07;3.53;;;;;;;22.56;53.85;98100.53;5062506;28;20522;-69
2023/05/15 09:20:30;;;;;;;8.57;4.18;;;;;;;22.08;54.89;98106.41;5075757;28;20115;-70
2023/05/15 09:22:56;;;;;;;7.57;3.40;;;;;;;22.19;53.95;98072.47;5061192;28;20077;-69
2023/05/15 09:25:36;;;;;;;;;;;;;;;22.39;55.83;98459.16;5077580;28;20119;-69
2023/05/15 09:28:01;;;;;;;5.40;3.97;;;;;;;23.07;54.18;98415.03;5077699;28;19912;-73
2023/05/15 09:30:29;;;;;;;6.35;4.30;;;;;;;22.83;54.47;98414.34;5077790;28;20015;-72
2023/05/15 09:32:58;;;;;;;8.30;4.28;;;;;;;22.86;54.50;98390.09;5075218;28;20036;-72
2023/05/15 09:35:32;;;;;;;7.38;3.58;;;;;;;23.15;55.31;98604.03;5077543;28;20200;-73
2023/05/15 09:38:01;;;;;;;4.18;3.78;;;;;;;23.55;53.66;98512.66;5077490;28;20364;-72
2023/05/15 09:40:30;;;;;;;9.77;3.90;;;;;;;24.04;53.68;98656.69;5076817;28;20030;-70
2023/05/15 09:42:57;;;;;;;6.43;3.80;;;;;;;24.03;52.34;98429.69;5077033;28;20036;-70
2023/05/15 09:45:28;;;;;;;5.70;3.45;;;;;;;24.17;51.74;98405.09;5076135;28;20161;-70
2023/05/15 09:47:54;;;;;;;4.57;3.22;;;;;;;24.07;50.68;98199.03;5077312;28;20027;-71
2023/05/15 09:50:37;;;;;;;10.18;3.50;;;;;;;23.81;51.48;98198.88;5077946;28;20166;-69
2023/05/15 09:53:03;;;;;;;6.78;3.50;;;;;;;24.08;51.69;98366.88;5076868;28;20498;-70
2023/05/15 09:55:35;;;;;;;4.00;3.53;;;;;;;23.76;51.43;98228.97;5076929;28;20020;-73
2023/05/15 09:58:07;;;;;;;8.68;3.88;;;;;;;22.92;51.97;97990.88;5076520;28;20119;-72
2023/05/15 10:00:34;;;;;;;5.50;3.90;;;;;;;22.46;52.84;98024.66;5077834;28;20028;-72
2023/05/15 10:03:07;;;;;;;10.20;5.07;;;;;;;22.38;53.25;98077.00;5076598;28;20023;-72
2023/05/15 10:05:33;;;;;;;8.15;4.35;;;;;;;21.99;53.99;98064.75;5077472;28;20040;-71
2023/05/15 10:07:59;;;;;;;8.35;4.53;;;;;;;21.71;54.85;98178.78;5063469;28;20033;-72
2023/05/15 10:10:25;;;;;;;6.97;3.83;;;;;;;22.89;54.53;98570.94;5078046;28;20380;-72
2023/05/15 10:12:52;;;;;;;3.90;3.47;;;;;;;23.21;53.06;98430.56;5077941;28;20512;-72
2023/05/15 10:15:19;;;;;;;10.13;4.45;;;;;;;24.04;51.56;98518.50;5076834;28;20028;-71
2023/05/15 10:17:49;;;;;;;8.57;3.97;;;;;;;24.71;50.98;98620.69;5079518;28;20028;-73
2023/05/15 10:20:16;;;;;;;8.93;3.72;;;;;;;25.35;50.74;98762.59;5062253;28;20115;-72
2023/05/15 10:22:46;;;;;;;4.85;3.38;;;;;;;25.94;49.58;98790.69;5076748;28;20021;-73
2023/05/15 10:25:29;;;;;;;11.05;3.67;;;;;;;26.39;47.89;98530.75;5076502;28;20029;-72
2023/05/15 10:27:55;;;;;;;8.90;3.70;;;;;;;26.80;45.17;98269.47;5076847;28;20490;-71
2023/05/15 10:30:21;;;;;;;;;;;;;;;25.85;45.38;97907.06;5077852;28;20029;-69
2023/05/15 10:32:48;;;;;;;6.20;3.40;;;;;;;25.23;44.74;97570.00;5075963;28;20255;-70
2023/05/15 10:35:14;;;;;;;6.60;3.35;;;;;;;25.68;46.15;98110.13;5076529;28;20051;-70
2023/05/15 10:37:39;;;;;;;4.82;3.53;;;;;;;26.31;44.60;98029.13;5076801;28;20047;-70
2023/05/15 10:40:07;;;;;;;10.85;3.40;;;;;;;26.26;43.22;97744.16;5075977;28;20020;-70
2023/05/15 10:42:33;;;;;;;6.05;3.47;;;;;;;26.98;42.85;97930.72;5076569;28;20024;-70
2023/05/15 10:45:01;;;;;;;8.80;3.75;;;;;;;26.26;41.35;97304.72;5076588;28;20039;-71
2023/05/15 10:47:29;;;;;;;8.02;3.58;;;;;;;26.04;43.34;97696.94;5079981;28;20043;-69
2023/05/15 10:49:55;;;;;;;6.38;3.53;;;;;;;26.86;42.44;97859.53;5063859;28;20032;-70
2023/05/15 10:52:21;;;;;;;4.25;3.45;;;;;;;27.50;41.06;97845.16;5079935;28;20111;-70
2023/05/15 10:54:46;;;;;;;9.07;3.85;;;;;;;26.67;41.68;97613.81;5065654;28;20170;-70
2023/05/15 10:57:13;;;;;;;4.60;3.17;;;;;;;27.17;40.45;97604.31;5065297;28;20636;-69
2023/05/15 10:59:40;;;;;;;5.05;3.33;;;;;;;26.88;41.33;97622.66;5080741;28;20127;-71
2023/05/15 11:02:22;;;;;;;5.60;3.28;;;;;;;26.60;41.66;97644.47;5065526;28;20024;-70
2023/05/15 11:04:54;;;;;;;5.07;3.17;;;;;;;26.17;40.58;97240.41;5065167;28;20033;-69
2023/05/15 11:07:20;;;;;;;4.82;3.45;;;;;;;26.76;41.46;97747.75;5080252;28;20490;-70
2023/05/15 11:09:45;;;;;;;4.85;3.00;;;;;;;26.33;41.58;97512.72;5079610;28;20016;-70
2023/05/15 11:12:11;;;;;;;6.95;3.85;;;;;;;26.51;41.53;97589.88;5079823;28;20040;-71